createdAt,value
2018-09-09T00:00:25.336Z,100480.52
2018-09-09T00:01:00.548Z,100480.63
2018-09-09T00:01:35.977Z,100480.63
2018-09-09T00:02:12.237Z,100478.64
2018-09-09T00:02:47.578Z,100486.86
2018-09-09T00:03:22.915Z,100491.33
2018-09-09T00:03:58.112Z,100487.95
2018-09-09T00:04:33.374Z,100489.92
2018-09-09T00:05:09.242Z,100487.22
2018-09-09T00:05:44.954Z,100487.47
2018-09-09T00:06:20.225Z,100488.77
2018-09-09T00:06:55.418Z,100490.73
2018-09-09T00:07:30.592Z,100490.80
2018-09-09T00:08:06.112Z,100493.15
2018-09-09T00:08:41.482Z,100492.50
2018-09-09T00:09:20.941Z,100493.59
2018-09-09T00:09:56.121Z,100497.69
2018-09-09T00:10:31.351Z,100489.64
2018-09-09T00:11:06.808Z,100496.47
2018-09-09T00:11:42.332Z,100493.94
2018-09-09T00:12:18.101Z,100495.24
2018-09-09T00:12:53.315Z,100492.94
2018-09-09T00:13:28.601Z,100500.00
2018-09-09T00:14:03.829Z,100504.38
2018-09-09T00:14:39.587Z,100498.77
2018-09-09T00:15:14.918Z,100503.00
2018-09-09T00:15:50.231Z,100502.53
2018-09-09T00:16:25.640Z,100499.16
2018-09-09T00:17:00.826Z,100507.38
2018-09-09T00:17:36.460Z,100498.77
2018-09-09T00:18:12.014Z,100500.92
2018-09-09T00:18:47.706Z,100506.45
2018-09-09T00:19:22.866Z,100502.61
2018-09-09T00:19:57.538Z,100503.45
2018-09-09T00:20:32.736Z,100507.45
2018-09-09T00:21:08.950Z,100509.44
2018-09-09T00:21:44.418Z,100503.30
2018-09-09T00:22:19.765Z,100511.52
2018-09-09T00:22:54.929Z,100501.42
2018-09-09T00:23:30.118Z,100497.04
2018-09-09T00:24:05.790Z,100503.19
2018-09-09T00:24:41.090Z,100501.87
2018-09-09T00:25:16.761Z,100499.27
2018-09-09T00:25:51.957Z,100497.23
2018-09-09T00:26:27.173Z,100498.80
2018-09-09T00:27:02.345Z,100494.16
2018-09-09T00:27:37.649Z,100496.39
2018-09-09T00:28:13.612Z,100496.47
2018-09-09T00:28:48.911Z,100494.48
2018-09-09T00:29:24.091Z,100491.98
2018-09-09T00:29:59.251Z,100490.38
2018-09-09T00:30:34.796Z,100493.52
2018-09-09T00:31:10.424Z,100490.30
2018-09-09T00:31:46.534Z,100491.67
2018-09-09T00:32:21.752Z,100487.08
2018-09-09T00:32:56.960Z,100487.08
2018-09-09T00:33:32.313Z,100490.72
2018-09-09T00:34:07.900Z,100486.88
2018-09-09T00:34:43.283Z,100487.19
2018-09-09T00:35:18.557Z,100487.65
2018-09-09T00:35:53.754Z,100486.53
2018-09-09T00:36:28.970Z,100484.11
2018-09-09T00:37:04.334Z,100484.11
2018-09-09T00:37:40.074Z,100487.65
2018-09-09T00:38:16.029Z,100490.26
2018-09-09T00:38:51.191Z,100490.26
2018-09-09T00:39:26.359Z,100486.34
2018-09-09T00:40:01.541Z,100481.28
2018-09-09T00:40:37.018Z,100485.50
2018-09-09T00:41:13.028Z,100483.34
2018-09-09T00:41:48.459Z,100480.44
2018-09-09T00:42:23.623Z,100482.28
2018-09-09T00:42:58.824Z,100476.33
2018-09-09T00:43:34.067Z,100483.78
2018-09-09T00:44:09.605Z,100481.17
2018-09-09T00:44:45.080Z,100482.09
2018-09-09T00:45:20.265Z,100486.08
2018-09-09T00:45:54.957Z,100481.32
2018-09-09T00:46:30.121Z,100477.48
2018-09-09T00:47:05.442Z,100474.14
2018-09-09T00:47:40.878Z,100486.55
2018-09-09T00:48:16.580Z,100479.36
2018-09-09T00:48:56.346Z,100484.66
2018-09-09T00:49:36.771Z,100482.05
2018-09-09T00:50:17.250Z,100479.98
2018-09-09T00:50:57.691Z,100483.73
2018-09-09T00:51:38.233Z,100483.66
2018-09-09T00:52:18.994Z,100478.71
2018-09-09T00:52:59.371Z,100480.78
2018-09-09T00:53:39.957Z,100479.64
2018-09-09T00:54:15.726Z,100482.81
2018-09-09T00:54:51.051Z,100481.41
2018-09-09T00:55:26.233Z,100475.83
2018-09-09T00:56:01.468Z,100478.80
2018-09-09T00:56:36.993Z,100480.09
2018-09-09T00:57:12.824Z,100480.56
2018-09-09T00:57:48.219Z,100474.22
2018-09-09T00:58:23.399Z,100479.83
2018-09-09T00:58:58.570Z,100482.59
2018-09-09T00:59:33.309Z,100476.61
2018-09-09T01:00:08.690Z,100480.52
2018-09-09T01:00:49.525Z,100483.59
2018-09-09T01:01:24.693Z,100484.23
2018-09-09T01:01:59.890Z,100486.08
2018-09-09T01:02:35.252Z,100484.13
2018-09-09T01:03:11.101Z,100495.09
2018-09-09T01:03:47.804Z,100486.11
2018-09-09T01:04:22.969Z,100494.02
2018-09-09T01:04:58.148Z,100494.78
2018-09-09T01:05:33.334Z,100494.13
2018-09-09T01:06:09.202Z,100489.34
2018-09-09T01:06:44.608Z,100492.64
2018-09-09T01:07:20.154Z,100492.72
2018-09-09T01:07:55.322Z,100488.98
2018-09-09T01:08:30.742Z,100491.59
2018-09-09T01:09:08.359Z,100488.14
2018-09-09T01:09:43.789Z,100493.74
2018-09-09T01:10:19.117Z,100486.77
2018-09-09T01:10:54.306Z,100492.72
2018-09-09T01:11:29.483Z,100490.75
2018-09-09T01:12:05.377Z,100489.37
2018-09-09T01:12:40.722Z,100493.74
2018-09-09T01:13:16.017Z,100495.59
2018-09-09T01:13:51.214Z,100490.06
2018-09-09T01:14:26.379Z,100495.66
2018-09-09T01:15:01.564Z,100495.73
2018-09-09T01:15:37.608Z,100491.09
2018-09-09T01:16:13.262Z,100491.09
2018-09-09T01:16:49.059Z,100489.47
2018-09-09T01:17:24.229Z,100499.38
2018-09-09T01:17:59.435Z,100493.46
2018-09-09T01:18:34.708Z,100496.07
2018-09-09T01:19:10.311Z,100499.22
2018-09-09T01:19:45.834Z,100493.19
2018-09-09T01:20:21.557Z,100493.19
2018-09-09T01:20:56.730Z,100497.84
2018-09-09T01:21:32.248Z,100498.30
2018-09-09T01:22:07.810Z,100497.76
2018-09-09T01:22:43.299Z,100492.01
2018-09-09T01:23:18.488Z,100495.00
2018-09-09T01:23:53.668Z,100500.14
2018-09-09T01:24:29.041Z,100495.00
2018-09-09T01:25:04.751Z,100493.31
2018-09-09T01:25:40.447Z,100497.22
2018-09-09T01:26:16.311Z,100497.22
2018-09-09T01:26:51.781Z,100492.20
2018-09-09T01:27:27.018Z,100496.97
2018-09-09T01:28:02.214Z,100498.91
2018-09-09T01:28:37.754Z,100498.84
2018-09-09T01:29:13.119Z,100497.04
2018-09-09T01:29:48.413Z,100498.84
2018-09-09T01:30:23.595Z,100493.12
2018-09-09T01:30:58.754Z,100495.27
2018-09-09T01:31:33.976Z,100495.66
2018-09-09T01:32:09.533Z,100493.89
2018-09-09T01:32:44.453Z,100495.43
2018-09-09T01:33:19.629Z,100489.37
2018-09-09T01:33:54.856Z,100489.91
2018-09-09T01:34:30.043Z,100494.36
2018-09-09T01:35:05.650Z,100493.74
2018-09-09T01:35:41.032Z,100494.59
2018-09-09T01:36:16.313Z,100495.43
2018-09-09T01:36:51.470Z,100493.09
2018-09-09T01:37:26.728Z,100496.02
2018-09-09T01:38:01.895Z,100494.25
2018-09-09T01:38:37.303Z,100496.16
2018-09-09T01:39:12.874Z,100492.52
2018-09-09T01:39:48.288Z,100490.83
2018-09-09T01:40:23.441Z,100495.13
2018-09-09T01:40:58.607Z,100495.27
2018-09-09T01:41:33.815Z,100489.40
2018-09-09T01:42:09.728Z,100486.25
2018-09-09T01:42:45.174Z,100485.56
2018-09-09T01:43:20.887Z,100488.25
2018-09-09T01:43:56.053Z,100489.62
2018-09-09T01:44:31.226Z,100488.78
2018-09-09T01:45:06.677Z,100481.22
2018-09-09T01:45:42.519Z,100489.42
2018-09-09T01:46:18.143Z,100478.99
2018-09-09T01:46:53.495Z,100487.20
2018-09-09T01:47:28.670Z,100493.27
2018-09-09T01:48:04.111Z,100481.53
2018-09-09T01:48:40.163Z,100481.98
2018-09-09T01:49:15.869Z,100486.74
2018-09-09T01:49:50.598Z,100488.05
2018-09-09T01:50:25.769Z,100484.59
2018-09-09T01:51:00.927Z,100485.18
2018-09-09T01:51:36.477Z,100491.70
2018-09-09T01:52:12.102Z,100491.70
2018-09-09T01:52:48.088Z,100493.46
2018-09-09T01:53:23.354Z,100492.16
2018-09-09T01:53:58.624Z,100496.45
2018-09-09T01:54:40.635Z,100493.39
2018-09-09T01:55:16.068Z,100489.28
2018-09-09T01:55:51.275Z,100493.19
2018-09-09T01:56:26.498Z,100490.66
2018-09-09T01:57:01.678Z,100491.19
2018-09-09T01:57:37.074Z,100494.79
2018-09-09T01:58:13.241Z,100499.09
2018-09-09T01:58:48.406Z,100491.06
2018-09-09T01:59:23.583Z,100494.20
2018-09-09T01:59:58.858Z,100491.14
2018-09-09T02:00:34.152Z,100495.20
2018-09-09T02:01:09.854Z,100495.84
2018-09-09T02:01:45.331Z,100487.39
2018-09-09T02:02:20.686Z,100496.52
2018-09-09T02:02:55.858Z,100495.78
2018-09-09T02:03:31.006Z,100494.48
2018-09-09T02:04:07.116Z,100496.28
2018-09-09T02:04:42.368Z,100494.20
2018-09-09T02:05:17.868Z,100494.28
2018-09-09T02:05:53.041Z,100491.32
2018-09-09T02:06:28.321Z,100490.94
2018-09-09T02:07:02.983Z,100491.01
2018-09-09T02:07:39.465Z,100494.53
2018-09-09T02:08:14.788Z,100490.48
2018-09-09T02:08:49.965Z,100491.86
2018-09-09T02:09:25.129Z,100487.63
2018-09-09T02:10:00.289Z,100492.84
2018-09-09T02:10:35.617Z,100494.68
2018-09-09T02:11:11.155Z,100492.64
2018-09-09T02:11:46.778Z,100497.92
2018-09-09T02:12:21.958Z,100495.47
2018-09-09T02:12:57.127Z,100492.12
2018-09-09T02:13:32.767Z,100492.47
2018-09-09T02:14:08.487Z,100495.92
2018-09-09T02:14:44.356Z,100496.48
2018-09-09T02:15:19.571Z,100498.14
2018-09-09T02:15:54.774Z,100501.23
2018-09-09T02:16:29.948Z,100502.69
2018-09-09T02:17:05.606Z,100493.11
2018-09-09T02:17:41.174Z,100502.89
2018-09-09T02:18:16.617Z,100498.38
2018-09-09T02:18:51.917Z,100497.61
2018-09-09T02:19:27.082Z,100493.88
2018-09-09T02:20:02.237Z,100498.31
2018-09-09T02:20:38.568Z,100506.67
2018-09-09T02:21:13.981Z,100505.51
2018-09-09T02:21:49.366Z,100496.77
2018-09-09T02:22:24.096Z,100506.67
2018-09-09T02:22:59.283Z,100507.38
2018-09-09T02:23:34.832Z,100503.61
2018-09-09T02:24:10.397Z,100506.39
2018-09-09T02:24:45.940Z,100505.23
2018-09-09T02:25:21.259Z,100508.67
2018-09-09T02:25:56.511Z,100507.06
2018-09-09T02:26:31.877Z,100509.84
2018-09-09T02:27:07.744Z,100507.77
2018-09-09T02:27:43.359Z,100505.22
2018-09-09T02:28:18.920Z,100504.31
2018-09-09T02:28:54.082Z,100508.67
2018-09-09T02:29:29.247Z,100508.67
2018-09-09T02:30:05.006Z,100506.07
2018-09-09T02:30:40.369Z,100506.07
2018-09-09T02:31:15.624Z,100507.77
2018-09-09T02:31:50.909Z,100509.45
2018-09-09T02:32:26.046Z,100504.31
2018-09-09T02:33:01.238Z,100504.77
2018-09-09T02:33:36.744Z,100501.70
2018-09-09T02:34:12.183Z,100502.69
2018-09-09T02:34:47.516Z,100507.16
2018-09-09T02:35:22.682Z,100503.32
2018-09-09T02:35:57.858Z,100503.92
2018-09-09T02:36:33.050Z,100505.75
2018-09-09T02:37:08.438Z,100508.53
2018-09-09T02:37:43.932Z,100504.76
2018-09-09T02:38:19.512Z,100502.78
2018-09-09T02:38:54.684Z,100510.49
2018-09-09T02:39:29.848Z,100508.52
2018-09-09T02:40:05.209Z,100507.60
2018-09-09T02:40:41.155Z,100516.33
2018-09-09T02:41:16.791Z,100512.88
2018-09-09T02:41:51.987Z,100514.32
2018-09-09T02:42:27.159Z,100516.18
2018-09-09T02:43:02.475Z,100518.39
2018-09-09T02:43:37.956Z,100514.17
2018-09-09T02:44:13.697Z,100515.93
2018-09-09T02:44:49.047Z,100519.38
2018-09-09T02:45:24.204Z,100515.15
2018-09-09T02:45:59.374Z,100508.35
2018-09-09T02:46:34.610Z,100514.02
2018-09-09T02:47:10.245Z,100511.80
2018-09-09T02:47:45.378Z,100515.25
2018-09-09T02:48:20.739Z,100515.15
2018-09-09T02:48:55.932Z,100514.80
2018-09-09T02:49:31.093Z,100510.11
2018-09-09T02:50:06.479Z,100513.39
2018-09-09T02:50:42.004Z,100512.19
2018-09-09T02:51:17.564Z,100508.96
2018-09-09T02:51:52.767Z,100518.47
2018-09-09T02:52:27.971Z,100509.59
2018-09-09T02:53:03.144Z,100512.09
2018-09-09T02:53:38.574Z,100514.80
2018-09-09T02:54:14.012Z,100515.25
2018-09-09T02:54:49.247Z,100518.70
2018-09-09T02:55:24.633Z,100517.87
2018-09-09T02:55:59.865Z,100522.76
2018-09-09T02:56:35.226Z,100518.59
2018-09-09T02:57:10.916Z,100520.81
2018-09-09T02:57:46.243Z,100521.89
2018-09-09T02:58:21.431Z,100518.06
2018-09-09T02:58:56.590Z,100523.43
2018-09-09T02:59:31.751Z,100515.30
2018-09-09T03:00:07.238Z,100516.28
2018-09-09T03:00:42.785Z,100518.03
2018-09-09T03:01:17.967Z,100517.58
2018-09-09T03:01:53.122Z,100515.89
2018-09-09T03:02:28.301Z,100516.28
2018-09-09T03:03:03.581Z,100509.31
2018-09-09T03:03:38.846Z,100516.21
2018-09-09T03:04:14.273Z,100511.46
2018-09-09T03:04:49.794Z,100512.38
2018-09-09T03:05:24.959Z,100512.44
2018-09-09T03:06:00.139Z,100509.31
2018-09-09T03:06:35.413Z,100513.16
2018-09-09T03:07:10.890Z,100508.54
2018-09-09T03:07:46.267Z,100508.64
2018-09-09T03:08:21.122Z,100508.77
2018-09-09T03:08:56.528Z,100511.37
2018-09-09T03:09:31.754Z,100503.70
2018-09-09T03:10:07.162Z,100507.54
2018-09-09T03:10:42.500Z,100510.77
2018-09-09T03:11:17.768Z,100507.38
2018-09-09T03:11:52.946Z,100502.70
2018-09-09T03:12:28.143Z,100506.60
2018-09-09T03:13:03.407Z,100503.70
2018-09-09T03:13:38.712Z,100504.45
2018-09-09T03:14:13.956Z,100504.06
2018-09-09T03:14:49.194Z,100502.48
2018-09-09T03:15:24.560Z,100505.17
2018-09-09T03:15:59.746Z,100506.09
2018-09-09T03:16:34.947Z,100508.40
2018-09-09T03:17:10.396Z,100517.11
2018-09-09T03:17:45.820Z,100515.81
2018-09-09T03:18:21.039Z,100520.30
2018-09-09T03:18:56.238Z,100514.32
2018-09-09T03:19:31.433Z,100519.06
2018-09-09T03:20:06.732Z,100516.56
2018-09-09T03:20:42.076Z,100515.84
2018-09-09T03:21:17.404Z,100517.92
2018-09-09T03:21:52.680Z,100521.77
2018-09-09T03:22:27.988Z,100520.59
2018-09-09T03:23:03.211Z,100515.91
2018-09-09T03:23:38.796Z,100517.21
2018-09-09T03:24:14.294Z,100519.59
2018-09-09T03:24:49.601Z,100524.78
2018-09-09T03:25:24.849Z,100520.11
2018-09-09T03:26:00.946Z,100523.09
2018-09-09T03:26:36.430Z,100515.03
2018-09-09T03:27:11.991Z,100523.94
2018-09-09T03:27:47.259Z,100516.98
2018-09-09T03:28:22.004Z,100520.04
2018-09-09T03:28:57.163Z,100519.42
2018-09-09T03:29:32.336Z,100517.38
2018-09-09T03:30:08.069Z,100515.69
2018-09-09T03:30:43.344Z,100513.21
2018-09-09T03:31:18.650Z,100516.20
2018-09-09T03:31:53.893Z,100513.60
2018-09-09T03:32:29.094Z,100514.05
2018-09-09T03:33:04.320Z,100513.73
2018-09-09T03:33:39.590Z,100516.33
2018-09-09T03:34:14.797Z,100516.33
2018-09-09T03:34:49.976Z,100518.41
2018-09-09T03:35:25.203Z,100513.27
2018-09-09T03:36:00.392Z,100513.50
2018-09-09T03:36:35.582Z,100511.87
2018-09-09T03:37:11.064Z,100517.92
2018-09-09T03:37:46.254Z,100515.77
2018-09-09T03:38:21.603Z,100511.03
2018-09-09T03:38:56.770Z,100515.84
2018-09-09T03:39:31.935Z,100517.75
2018-09-09T03:40:07.173Z,100517.03
2018-09-09T03:40:42.766Z,100518.95
2018-09-09T03:41:17.946Z,100521.48
2018-09-09T03:41:53.143Z,100517.58
2018-09-09T03:42:28.334Z,100513.68
2018-09-09T03:43:03.515Z,100518.72
2018-09-09T03:43:38.767Z,100516.19
2018-09-09T03:44:13.936Z,100518.03
2018-09-09T03:44:49.136Z,100518.95
2018-09-09T03:45:24.392Z,100516.86
2018-09-09T03:45:59.558Z,100518.62
2018-09-09T03:46:35.449Z,100516.92
2018-09-09T03:47:10.772Z,100518.77
2018-09-09T03:47:45.970Z,100518.67
2018-09-09T03:48:21.150Z,100514.87
2018-09-09T03:48:56.454Z,100513.87
2018-09-09T03:49:31.626Z,100515.11
2018-09-09T03:50:06.850Z,100514.72
2018-09-09T03:50:42.386Z,100515.05
2018-09-09T03:51:17.848Z,100516.34
2018-09-09T03:51:53.038Z,100508.67
2018-09-09T03:52:28.247Z,100518.95
2018-09-09T03:53:03.511Z,100511.14
2018-09-09T03:53:38.879Z,100513.68
2018-09-09T03:54:14.169Z,100512.45
2018-09-09T03:54:49.354Z,100515.05
2018-09-09T03:55:24.531Z,100507.70
2018-09-09T03:55:59.678Z,100518.48
2018-09-09T03:56:34.906Z,100514.13
2018-09-09T03:57:10.155Z,100509.97
2018-09-09T03:57:45.417Z,100515.23
2018-09-09T03:58:20.602Z,100516.62
2018-09-09T03:58:55.784Z,100508.89
2018-09-09T03:59:30.938Z,100509.73
2018-09-09T04:00:06.318Z,100506.81
2018-09-09T04:00:41.549Z,100501.05
2018-09-09T04:01:16.794Z,100508.17
2018-09-09T04:01:51.950Z,100504.27
2018-09-09T04:02:27.220Z,100500.31
2018-09-09T04:03:02.394Z,100507.14
2018-09-09T04:03:37.654Z,100505.90
2018-09-09T04:04:12.932Z,100506.29
2018-09-09T04:04:48.194Z,100510.48
2018-09-09T04:05:23.372Z,100505.84
2018-09-09T04:05:58.557Z,100507.30
2018-09-09T04:06:33.742Z,100506.46
2018-09-09T04:07:08.980Z,100506.52
2018-09-09T04:07:44.335Z,100517.25
2018-09-09T04:08:19.628Z,100513.02
2018-09-09T04:08:54.825Z,100507.53
2018-09-09T04:09:30.002Z,100512.57
2018-09-09T04:10:05.362Z,100509.58
2018-09-09T04:10:40.775Z,100510.97
2018-09-09T04:11:15.966Z,100510.58
2018-09-09T04:11:51.203Z,100508.56
2018-09-09T04:12:26.428Z,100510.70
2018-09-09T04:13:01.611Z,100511.44
2018-09-09T04:13:37.287Z,100517.03
2018-09-09T04:14:12.622Z,100510.14
2018-09-09T04:14:47.823Z,100518.91
2018-09-09T04:15:23.027Z,100515.41
2018-09-09T04:15:58.502Z,100520.60
2018-09-09T04:16:33.654Z,100514.95
2018-09-09T04:17:08.403Z,100514.10
2018-09-09T04:17:43.890Z,100514.26
2018-09-09T04:18:19.119Z,100515.29
2018-09-09T04:18:54.279Z,100519.25
2018-09-09T04:19:29.459Z,100511.06
2018-09-09T04:20:04.655Z,100514.38
2018-09-09T04:20:39.919Z,100510.55
2018-09-09T04:21:15.263Z,100514.45
2018-09-09T04:21:53.335Z,100514.05
2018-09-09T04:22:28.543Z,100510.16
2018-09-09T04:23:03.739Z,100511.91
2018-09-09T04:23:39.295Z,100512.45
2018-09-09T04:24:14.664Z,100511.67
2018-09-09T04:24:53.015Z,100509.59
2018-09-09T04:25:28.210Z,100516.08
2018-09-09T04:26:03.383Z,100512.24
2018-09-09T04:26:38.143Z,100518.80
2018-09-09T04:27:13.370Z,100519.20
2018-09-09T04:27:48.094Z,100511.40
2018-09-09T04:28:23.269Z,100516.14
2018-09-09T04:28:58.460Z,100522.58
2018-09-09T04:29:33.635Z,100517.89
2018-09-09T04:30:09.010Z,100524.78
2018-09-09T04:30:44.365Z,100520.83
2018-09-09T04:31:19.690Z,100516.02
2018-09-09T04:31:54.881Z,100520.31
2018-09-09T04:32:30.050Z,100518.23
2018-09-09T04:33:05.683Z,100519.41
2018-09-09T04:33:40.982Z,100520.70
2018-09-09T04:34:16.170Z,100521.16
2018-09-09T04:34:51.347Z,100525.45
2018-09-09T04:35:26.514Z,100528.80
2018-09-09T04:36:01.715Z,100529.25
2018-09-09T04:36:37.007Z,100525.05
2018-09-09T04:37:12.506Z,100527.11
2018-09-09T04:37:47.866Z,100527.89
2018-09-09T04:38:23.048Z,100526.59
2018-09-09T04:38:58.227Z,100535.57
2018-09-09T04:39:33.443Z,100529.46
2018-09-09T04:40:08.164Z,100532.45
2018-09-09T04:40:42.938Z,100532.45
2018-09-09T04:41:18.109Z,100533.66
2018-09-09T04:41:53.322Z,100534.05
2018-09-09T04:42:27.931Z,100536.20
2018-09-09T04:43:02.533Z,100528.01
2018-09-09T04:43:38.139Z,100534.38
2018-09-09T04:44:14.005Z,100538.61
2018-09-09T04:44:49.176Z,100538.52
2018-09-09T04:45:24.339Z,100535.34
2018-09-09T04:45:59.514Z,100544.77
2018-09-09T04:46:34.790Z,100539.63
2018-09-09T04:47:10.063Z,100540.09
2018-09-09T04:47:45.260Z,100543.20
2018-09-09T04:48:20.459Z,100540.21
2018-09-09T04:48:55.795Z,100545.11
2018-09-09T04:49:31.040Z,100545.02
2018-09-09T04:50:06.736Z,100547.38
2018-09-09T04:50:42.028Z,100549.14
2018-09-09T04:51:17.230Z,100543.61
2018-09-09T04:51:52.415Z,100542.30
2018-09-09T04:52:27.629Z,100551.67
2018-09-09T04:53:02.807Z,100546.92
2018-09-09T04:53:38.153Z,100546.92
2018-09-09T04:54:13.416Z,100546.92
2018-09-09T04:54:48.739Z,100552.13
2018-09-09T04:55:23.897Z,100543.94
2018-09-09T04:55:59.070Z,100550.44
2018-09-09T04:56:34.774Z,100545.63
2018-09-09T04:57:10.147Z,100547.23
2018-09-09T04:57:45.420Z,100547.71
2018-09-09T04:58:20.631Z,100551.12
2018-09-09T04:58:55.820Z,100551.22
2018-09-09T04:59:31.013Z,100549.92
2018-09-09T05:00:07.282Z,100549.08
2018-09-09T05:00:42.538Z,100548.74
2018-09-09T05:01:17.773Z,100549.59
2018-09-09T05:01:53.160Z,100549.92
2018-09-09T05:02:28.349Z,100546.92
2018-09-09T05:03:03.563Z,100551.06
2018-09-09T05:03:39.144Z,100553.60
2018-09-09T05:04:14.566Z,100556.08
2018-09-09T05:04:49.774Z,100553.48
2018-09-09T05:05:24.437Z,100550.88
2018-09-09T05:05:59.634Z,100556.08
2018-09-09T05:06:35.084Z,100556.83
2018-09-09T05:07:10.864Z,100558.47
2018-09-09T05:07:46.137Z,100557.68
2018-09-09T05:08:21.964Z,100561.28
2018-09-09T05:08:56.590Z,100560.38
2018-09-09T05:09:31.744Z,100566.54
2018-09-09T05:10:07.489Z,100562.77
2018-09-09T05:10:42.870Z,100573.05
2018-09-09T05:11:17.742Z,100570.38
2018-09-09T05:11:52.932Z,100566.15
2018-09-09T05:12:28.178Z,100572.07
2018-09-09T05:13:03.836Z,100569.08
2018-09-09T05:13:39.873Z,100570.28
2018-09-09T05:14:15.437Z,100565.93
2018-09-09T05:14:50.750Z,100571.98
2018-09-09T05:15:25.951Z,100574.52
2018-09-09T05:16:01.194Z,100571.86
2018-09-09T05:16:37.774Z,100573.09
2018-09-09T05:17:13.230Z,100576.55
2018-09-09T05:17:48.967Z,100575.30
2018-09-09T05:18:24.145Z,100565.36
2018-09-09T05:18:59.316Z,100570.04
2018-09-09T05:19:34.552Z,100575.54
2018-09-09T05:20:10.148Z,100574.23
2018-09-09T05:20:45.417Z,100572.64
2018-09-09T05:21:20.766Z,100575.23
2018-09-09T05:21:56.096Z,100571.34
2018-09-09T05:22:31.315Z,100570.34
2018-09-09T05:23:06.894Z,100570.67
2018-09-09T05:23:42.544Z,100572.30
2018-09-09T05:24:17.837Z,100564.34
2018-09-09T05:24:53.008Z,100571.89
2018-09-09T05:25:28.226Z,100570.11
2018-09-09T05:26:03.439Z,100572.13
2018-09-09T05:26:38.890Z,100567.83
2018-09-09T05:27:14.297Z,100564.33
2018-09-09T05:27:49.660Z,100571.61
2018-09-09T05:28:24.949Z,100563.74
2018-09-09T05:29:00.263Z,100569.69
2018-09-09T05:29:35.968Z,100565.27
2018-09-09T05:30:12.192Z,100566.52
2018-09-09T05:30:48.452Z,100568.95
2018-09-09T05:31:23.619Z,100573.19
2018-09-09T05:31:58.802Z,100566.61
2018-09-09T05:32:33.985Z,100577.34
2018-09-09T05:33:09.603Z,100574.30
2018-09-09T05:33:45.276Z,100566.55
2018-09-09T05:34:20.465Z,100570.39
2018-09-09T05:34:55.689Z,100572.37
2018-09-09T05:35:30.889Z,100573.16
2018-09-09T05:36:07.457Z,100576.57
2018-09-09T05:36:43.256Z,100577.32
2018-09-09T05:37:19.048Z,100572.12
2018-09-09T05:37:54.218Z,100579.02
2018-09-09T05:38:29.506Z,100569.91
2018-09-09T05:39:09.272Z,100575.83
2018-09-09T05:39:44.789Z,100580.58
2018-09-09T05:40:19.995Z,100576.58
2018-09-09T05:40:55.194Z,100575.66
2018-09-09T05:41:30.382Z,100573.91
2018-09-09T05:42:05.755Z,100579.05
2018-09-09T05:42:41.019Z,100575.08
2018-09-09T05:43:17.190Z,100578.91
2018-09-09T05:43:52.359Z,100578.45
2018-09-09T05:44:27.551Z,100583.11
2018-09-09T05:45:02.728Z,100582.13
2018-09-09T05:45:38.602Z,100580.77
2018-09-09T05:46:13.952Z,100580.77
2018-09-09T05:46:49.345Z,100587.50
2018-09-09T05:47:24.611Z,100585.22
2018-09-09T05:47:59.795Z,100589.58
2018-09-09T05:48:35.095Z,100583.14
2018-09-09T05:49:11.194Z,100586.98
2018-09-09T05:49:46.866Z,100584.77
2018-09-09T05:50:22.039Z,100589.13
2018-09-09T05:50:57.355Z,100586.00
2018-09-09T05:51:32.569Z,100579.63
2018-09-09T05:52:08.013Z,100586.39
2018-09-09T05:52:43.424Z,100590.75
2018-09-09T05:53:18.810Z,100589.52
2018-09-09T05:53:54.017Z,100587.89
2018-09-09T05:54:29.430Z,100590.36
2018-09-09T05:55:04.592Z,100590.81
2018-09-09T05:55:39.932Z,100591.27
2018-09-09T05:56:15.253Z,100586.20
2018-09-09T05:56:50.433Z,100590.95
2018-09-09T05:57:25.659Z,100585.28
2018-09-09T05:58:01.027Z,100594.86
2018-09-09T05:58:36.521Z,100592.64
2018-09-09T05:59:12.376Z,100588.52
2018-09-09T05:59:47.724Z,100587.73
2018-09-09T06:00:22.899Z,100587.11
2018-09-09T06:00:58.081Z,100587.80
2018-09-09T06:01:33.291Z,100594.83
2018-09-09T06:02:08.965Z,100585.42
2018-09-09T06:02:44.339Z,100590.30
2018-09-09T06:03:19.562Z,100590.53
2018-09-09T06:03:54.781Z,100593.27
2018-09-09T06:04:29.977Z,100586.98
2018-09-09T06:05:05.725Z,100593.66
2018-09-09T06:05:41.098Z,100586.23
2018-09-09T06:06:16.366Z,100591.61
2018-09-09T06:06:51.559Z,100592.97
2018-09-09T06:07:26.896Z,100593.63
2018-09-09T06:08:02.084Z,100588.77
2018-09-09T06:08:37.736Z,100592.13
2018-09-09T06:09:13.183Z,100586.75
2018-09-09T06:09:48.444Z,100592.90
2018-09-09T06:10:23.734Z,100587.41
2018-09-09T06:10:58.918Z,100593.52
2018-09-09T06:11:34.092Z,100591.93
2018-09-09T06:12:09.660Z,100594.44
2018-09-09T06:12:45.295Z,100592.84
2018-09-09T06:13:20.689Z,100594.14
2018-09-09T06:13:55.930Z,100596.13
2018-09-09T06:14:31.115Z,100590.86
2018-09-09T06:15:07.083Z,100591.95
2018-09-09T06:15:42.614Z,100595.31
2018-09-09T06:16:18.091Z,100598.17
2018-09-09T06:16:53.311Z,100598.09
2018-09-09T06:17:28.501Z,100595.82
2018-09-09T06:18:03.670Z,100599.27
2018-09-09T06:18:39.123Z,100600.19
2018-09-09T06:19:14.629Z,100598.81
2018-09-09T06:19:49.802Z,100599.05
2018-09-09T06:20:24.979Z,100597.88
2018-09-09T06:21:00.156Z,100601.88
2018-09-09T06:21:36.155Z,100600.70
2018-09-09T06:22:11.074Z,100599.50
2018-09-09T06:22:46.552Z,100602.23
2018-09-09T06:23:21.755Z,100598.17
2018-09-09T06:23:56.969Z,100596.87
2018-09-09T06:24:32.138Z,100601.53
2018-09-09T06:25:07.615Z,100599.05
2018-09-09T06:25:42.963Z,100600.23
2018-09-09T06:26:18.399Z,100601.66
2018-09-09T06:26:54.071Z,100597.75
2018-09-09T06:27:29.283Z,100596.06
2018-09-09T06:28:04.528Z,100599.19
2018-09-09T06:28:39.997Z,100598.34
2018-09-09T06:29:15.471Z,100601.20
2018-09-09T06:29:50.727Z,100595.87
2018-09-09T06:30:25.863Z,100600.68
2018-09-09T06:31:01.021Z,100592.03
2018-09-09T06:31:36.391Z,100593.39
2018-09-09T06:32:11.762Z,100601.53
2018-09-09T06:32:47.051Z,100600.23
2018-09-09T06:33:22.217Z,100601.17
2018-09-09T06:33:57.495Z,100602.98
2018-09-09T06:34:32.806Z,100602.83
2018-09-09T06:35:08.216Z,100608.75
2018-09-09T06:35:43.082Z,100605.14
2018-09-09T06:36:18.331Z,100604.13
2018-09-09T06:36:53.675Z,100600.78
2018-09-09T06:37:28.872Z,100599.31
2018-09-09T06:38:04.067Z,100603.37
2018-09-09T06:38:39.412Z,100600.52
2018-09-09T06:39:14.883Z,100595.18
2018-09-09T06:39:50.144Z,100600.06
2018-09-09T06:40:25.327Z,100597.06
2018-09-09T06:41:00.478Z,100591.47
2018-09-09T06:41:35.733Z,100595.25
2018-09-09T06:42:11.150Z,100599.18
2018-09-09T06:42:46.488Z,100598.11
2018-09-09T06:43:21.901Z,100600.32
2018-09-09T06:43:57.306Z,100596.41
2018-09-09T06:44:32.487Z,100601.45